Etusivu
METAR-TAF:

METAR-TAF

Lentoasemat :

Lafayette Regional Airport

Lafayette, Louisiana, Yhdysvallat

Leveyspiiri: 30-12-08N, Pituuspiiri: 091-59-35W, korkeus merenpinnasta: 12 m

Tämänhetkinen sää

Tämä raportti tehtiin 13 minuuttia sitten, kello 16.53 UTC
Tuuli 5 kn lounaasta
Lämpötila 18°C
Kosteus 56%
Ilmanpaine 1015 hPa
Näkyvyys: 16.1 km
selkeää

METAR: KLFT 181653Z 23005KT 10SM CLR 18/09 A2998 RMK AO2 SLP152 T01830089

Aika: 11:06 (17:06 UTC)

Sääennuste

Tämä raportti tehtiin 4 tuntia ja 6 minuuttia sitten, kello 13.00 UTC
Ennuste voimassa 18. päivästä klo 13 UTC - 19. päivään klo 12 UTC
Tuuli 3 kn eri suunnista
Näkyvyys: 10 km
selkeää
From 18. päivästä klo 1700 UTC
Tuuli 5 kn luoteesta
Näkyvyys: 10 km
Hajanaisia pilviä 25000 ft:n korkeudessa
From 19. päivästä klo 0900 UTC
Tuuli kn pohjoisesta
Näkyvyys: 8.0 km
selkeää
utua

TAF: KLFT 181300Z 1813/1912 VRB03KT P6SM SKC FM181700 31005KT P6SM SCT250 FM190900 00000KT 5SM BR SKC

Säähavainnot ja -ennusteet yli 4000 lentoasemalta (METAR- ja TAF-raportit).

Käytössä olevat sääasemat on merkitty karttaan keltaisilla ja punaisilla pisteillä.

Aseta hiiri pisteen päälle nähdäksesi sääaseman nimen.

Klikkaa sitten nähdäksesi säähavainnot ja -ennusteet.

Kartan vaihtaminen: klikkaa mustalla rastilla varustettuja vihreitä pisteitä, niin voit zoomata sisään; viivalla varustettua vihreää pistettä, niin voit zoomata ulos tai vihreitä nuolia, niin pääset viereisille kartoille.


METAR-TAF: